Time;durP1;ratioP1;P1;durP2;ratioP2;P2;SDS_P1;SDS_P2;PMS_P1;PMS_P2;Temp;Humidity;BMP_temperature;BMP_pressure;BME280_temperature;BME280_humidity;BME280_pressure;Samples;Min_cycle;Max_cycle;Signal;HPM_P1;HPM_P2
2022/05/18 00:00:54;;;;;;;18.67;6.47;;;;;;;7.79;100.00;99372.91;1694044;83;21038;-57
2022/05/18 00:03:24;;;;;;;11.53;5.40;;;;;;;7.76;100.00;99378.04;1751104;81;21020;-57
2022/05/18 00:05:51;;;;;;;11.95;4.95;;;;;;;7.73;100.00;99371.77;1740094;81;21401;-57
2022/05/18 00:08:18;;;;;;;11.15;5.17;;;;;;;7.68;100.00;99378.52;1766208;81;21475;-57
2022/05/18 00:10:45;;;;;;;;;;;;;;;7.61;100.00;99374.69;1748737;81;21095;-57
2022/05/18 00:13:12;;;;;;;13.18;4.40;;;;;;;7.56;100.00;99381.42;1750874;81;20400;-58
2022/05/18 00:15:39;;;;;;;5.97;3.55;;;;;;;7.46;100.00;99386.23;1699909;83;21097;-57
2022/05/18 00:18:07;;;;;;;10.23;3.27;;;;;;;7.43;100.00;99378.63;1749219;81;21067;-58
2022/05/18 00:20:33;;;;;;;6.37;2.75;;;;;;;7.46;100.00;99384.06;1728198;81;21718;-56
2022/05/18 00:23:02;;;;;;;10.20;2.30;;;;;;;7.47;100.00;99389.77;1767278;81;21071;-57
2022/05/18 00:25:32;;;;;;;6.62;2.25;;;;;;;7.48;100.00;99380.00;1764842;81;21602;-57
2022/05/18 00:27:58;;;;;;;5.50;1.67;;;;;;;7.51;100.00;99381.37;1751488;80;20989;-57
2022/05/18 00:30:25;;;;;;;5.85;2.00;;;;;;;7.54;100.00;99389.53;1755084;79;21031;-57
2022/05/18 00:32:53;;;;;;;5.85;2.00;;;;;;;7.51;100.00;99382.19;1762971;81;21007;-57
2022/05/18 00:35:20;;;;;;;7.85;2.70;;;;;;;7.49;100.00;99385.71;1766285;81;21484;-57
2022/05/18 00:37:47;;;;;;;9.75;4.45;;;;;;;7.47;100.00;99390.55;1753282;81;20955;-57
2022/05/18 00:40:15;;;;;;;13.28;5.75;;;;;;;7.42;100.00;99391.89;1712618;82;21072;-57
2022/05/18 00:42:41;;;;;;;18.87;9.38;;;;;;;7.38;100.00;99394.01;1753303;81;21459;-57
2022/05/18 00:45:09;;;;;;;21.35;9.15;;;;;;;7.31;100.00;99388.81;1754260;81;20991;-57
2022/05/18 00:47:36;;;;;;;21.33;9.15;;;;;;;7.24;100.00;99399.58;1748635;81;21020;-57
2022/05/18 00:50:15;;;;;;;21.62;10.58;;;;;;;7.15;100.00;99401.96;1760742;81;21384;-57
2022/05/18 00:52:48;;;;;;;23.42;12.05;;;;;;;7.06;100.00;99401.31;1757079;81;21018;-57
2022/05/18 00:55:16;;;;;;;23.85;10.65;;;;;;;6.94;100.00;99404.98;1705493;83;21635;-57
2022/05/18 00:57:48;;;;;;;28.47;11.80;;;;;;;6.73;100.00;99386.92;1752226;81;21009;-57
2022/05/18 01:00:16;;;;;;;25.55;11.05;;;;;;;6.72;100.00;99404.25;1751538;80;21066;-57
2022/05/18 01:02:49;;;;;;;25.62;10.88;;;;;;;6.62;100.00;99406.02;1754450;81;21020;-57
2022/05/18 01:05:18;;;;;;;26.70;11.45;;;;;;;6.53;100.00;99415.64;1746390;81;21138;-57
2022/05/18 01:07:48;;;;;;;24.43;10.60;;;;;;;6.42;100.00;99417.41;1738965;81;21043;-56
2022/05/18 01:10:14;;;;;;;22.27;11.22;;;;;;;6.32;100.00;99417.29;1748357;81;20975;-56
2022/05/18 01:12:43;;;;;;;27.62;11.93;;;;;;;6.31;100.00;99415.12;1745155;80;21024;-56
2022/05/18 01:15:17;;;;;;;28.38;13.13;;;;;;;6.33;100.00;99412.17;1742699;81;21486;-57
2022/05/18 01:17:47;;;;;;;29.98;12.88;;;;;;;6.26;100.00;99416.95;1741670;81;21581;-56
2022/05/18 01:20:20;;;;;;;32.03;13.30;;;;;;;6.21;100.00;99419.58;1748491;81;21051;-56
2022/05/18 01:23:26;;;;;;;33.90;13.58;;;;;;;6.16;100.00;99422.23;1743320;81;21519;-55
2022/05/18 01:26:33;;;;;;;29.30;14.23;;;;;;;6.11;100.00;99427.03;1760914;80;21090;-56
2022/05/18 01:29:01;;;;;;;25.82;13.08;;;;;;;6.06;100.00;99427.51;1751205;81;21053;-56
2022/05/18 01:31:50;;;;;;;27.90;13.48;;;;;;;6.06;100.00;99431.00;1749937;81;21552;-56
2022/05/18 01:34:20;;;;;;;37.10;15.03;;;;;;;6.08;100.00;99432.94;1750102;81;21499;-56
2022/05/18 01:36:47;;;;;;;26.80;13.43;;;;;;;6.03;100.00;99438.27;1757608;81;21592;-56
2022/05/18 01:39:30;;;;;;;32.58;13.70;;;;;;;5.97;100.00;99433.86;1761383;81;21027;-57
2022/05/18 01:42:12;;;;;;;35.23;13.70;;;;;;;5.91;100.00;99444.32;1758460;81;21027;-56
2022/05/18 01:44:39;;;;;;;33.00;12.98;;;;;;;5.88;100.00;99438.06;1748033;79;20984;-56
2022/05/18 01:47:07;;;;;;;26.73;12.25;;;;;;;5.89;100.00;99447.26;1760790;81;21055;-55
2022/05/18 01:49:35;;;;;;;26.82;11.95;;;;;;;5.88;100.00;99448.88;1761840;81;21039;-56
2022/05/18 01:52:03;;;;;;;29.72;12.13;;;;;;;5.81;100.00;99444.94;1757345;80;21583;-56
2022/05/18 01:54:29;;;;;;;30.68;11.95;;;;;;;5.71;100.00;99448.02;1750357;81;21696;-56
2022/05/18 01:56:57;;;;;;;29.23;12.25;;;;;;;5.66;100.00;99452.01;1745520;81;21114;-56
2022/05/18 01:59:24;;;;;;;25.52;11.00;;;;;;;5.64;100.00;99456.83;1745837;81;21024;-56
2022/05/18 02:01:50;;;;;;;;;;;;;;;5.67;100.00;99449.61;1753302;81;21120;-56
2022/05/18 02:04:17;;;;;;;29.12;12.55;;;;;;;5.69;100.00;99457.73;1744063;81;20142;-57
2022/05/18 02:06:43;;;;;;;29.42;12.45;;;;;;;5.55;100.00;99454.27;1751917;81;21114;-56
2022/05/18 02:09:10;;;;;;;;;;;;;;;5.49;100.00;99452.81;1757114;81;21024;-56
2022/05/18 02:11:38;;;;;;;37.70;16.55;;;;;;;5.44;100.00;99452.75;1757126;79;20109;-56
2022/05/18 02:14:06;;;;;;;34.23;16.12;;;;;;;5.33;100.00;99456.87;1750343;81;21035;-57
2022/05/18 02:16:34;;;;;;;40.40;17.65;;;;;;;5.33;100.00;99459.04;1764209;81;21024;-56
2022/05/18 02:19:00;;;;;;;37.33;17.57;;;;;;;5.34;100.00;99460.69;1759386;81;21055;-57
2022/05/18 02:21:27;;;;;;;37.75;18.35;;;;;;;5.27;100.00;99455.16;1751874;81;21655;-57
2022/05/18 02:23:53;;;;;;;;;;;;;;;5.21;100.00;99461.53;1688091;84;21057;-58
2022/05/18 02:26:21;;;;;;;39.00;17.62;;;;;;;5.17;100.00;99459.03;1709927;83;20414;-56
2022/05/18 02:28:48;;;;;;;32.88;15.53;;;;;;;5.10;100.00;99456.46;1749663;81;21025;-56
2022/05/18 02:31:15;;;;;;;;;;;;;;;5.14;100.00;99463.02;1751787;81;21665;-58
2022/05/18 02:33:42;;;;;;;33.83;14.03;;;;;;;5.16;100.00;99464.95;1749878;81;20115;-57
2022/05/18 02:36:08;;;;;;;28.57;12.65;;;;;;;5.07;100.00;99464.22;1743355;80;21083;-57
2022/05/18 02:38:35;;;;;;;26.85;11.57;;;;;;;5.01;100.00;99461.45;1751760;81;21063;-57
2022/05/18 02:41:02;;;;;;;;;;;;;;;4.98;100.00;99461.12;1761267;81;21023;-57
2022/05/18 02:43:29;;;;;;;26.55;10.70;;;;;;;5.00;100.00;99460.33;1763819;81;20116;-57
2022/05/18 02:46:10;;;;;;;23.98;11.68;;;;;;;5.02;100.00;99466.32;1750617;81;21090;-57
2022/05/18 02:48:37;;;;;;;28.05;11.88;;;;;;;5.05;100.00;99469.05;1753595;81;20976;-57
2022/05/18 02:51:05;;;;;;;26.15;10.58;;;;;;;5.00;100.00;99468.42;1767675;81;21048;-57
2022/05/18 02:53:32;;;;;;;22.67;10.72;;;;;;;4.97;100.00;99470.27;1758973;81;21015;-57
2022/05/18 02:56:07;;;;;;;26.75;11.60;;;;;;;4.95;100.00;99469.17;1749187;81;21051;-57
2022/05/18 02:58:42;;;;;;;26.60;11.20;;;;;;;5.00;100.00;99471.94;1747878;81;21032;-57
2022/05/18 03:01:12;;;;;;;24.80;9.95;;;;;;;5.02;100.00;99467.67;1750900;80;21072;-57
2022/05/18 03:03:40;;;;;;;28.10;11.83;;;;;;;5.01;100.00;99476.81;1747068;81;21066;-57
2022/05/18 03:06:08;;;;;;;;;;;;;;;5.00;100.00;99475.98;1749356;81;21048;-57
2022/05/18 03:08:36;;;;;;;26.25;10.50;;;;;;;5.05;100.00;99476.63;1751928;81;20114;-58
2022/05/18 03:11:04;;;;;;;26.05;11.08;;;;;;;5.10;100.00;99475.91;1746064;81;21039;-57
2022/05/18 03:13:30;;;;;;;26.50;11.60;;;;;;;5.15;100.00;99480.84;1753760;81;21151;-57
2022/05/18 03:15:56;;;;;;;;;;;;;;;5.21;100.00;99473.68;1771352;81;21079;-57
2022/05/18 03:18:24;;;;;;;26.50;11.47;;;;;;;5.21;100.00;99481.77;1752067;81;20088;-58
2022/05/18 03:23:39;;;;;;;25.40;11.12;;;;;;;5.27;100.00;99472.17;1747078;81;21578;-57
2022/05/18 03:26:10;;;;;;;26.37;10.78;;;;;;;5.38;100.00;99482.61;1746045;81;21620;-57
2022/05/18 03:28:38;;;;;;;24.18;11.38;;;;;;;5.41;100.00;99488.34;1748449;81;21032;-56
2022/05/18 03:31:05;;;;;;;25.02;11.95;;;;;;;5.48;100.00;99487.65;1747055;81;21062;-56
2022/05/18 03:33:33;;;;;;;24.92;11.15;;;;;;;5.60;100.00;99484.06;1766736;81;20987;-56
2022/05/18 03:35:59;;;;;;;26.37;12.50;;;;;;;5.63;100.00;99485.73;1748130;81;21015;-56
2022/05/18 03:38:26;;;;;;;;;;;;;;;5.61;100.00;99485.14;1756220;81;21002;-56
2022/05/18 03:40:53;;;;;;;29.87;12.43;;;;;;;5.60;100.00;99492.16;1745216;81;20107;-57
2022/05/18 03:43:20;;;;;;;;;;;;;;;5.62;100.00;99494.07;1747415;81;21011;-56
2022/05/18 03:45:46;;;;;;;27.35;12.20;;;;;;;5.91;100.00;99500.53;1766159;81;20093;-56
2022/05/18 03:48:13;;;;;;;;;;;;;;;6.11;100.00;99494.59;1766415;81;21027;-57
2022/05/18 03:50:42;;;;;;;25.00;11.05;;;;;;;6.35;100.00;99500.06;1749310;81;20123;-57
2022/05/18 03:53:09;;;;;;;26.90;11.90;;;;;;;6.42;100.00;99491.77;1748509;81;21504;-56
2022/05/18 03:55:38;;;;;;;30.05;11.53;;;;;;;6.48;100.00;99496.98;1754123;81;21095;-56
2022/05/18 03:58:07;;;;;;;24.63;11.73;;;;;;;6.52;100.00;99495.95;1750327;81;21438;-57
2022/05/18 04:00:33;;;;;;;;;;;;;;;6.56;100.00;99497.09;1764065;81;21024;-56
2022/05/18 04:03:01;;;;;;;24.47;11.25;;;;;;;6.57;100.00;99487.91;1743089;81;20417;-57
2022/05/18 04:05:28;;;;;;;29.67;12.10;;;;;;;6.48;100.00;99496.98;1743035;81;21087;-56
2022/05/18 04:07:55;;;;;;;28.12;11.10;;;;;;;6.48;100.00;99498.89;1744024;81;21086;-55
2022/05/18 04:10:22;;;;;;;20.60;10.70;;;;;;;6.56;100.00;99500.32;1742977;81;21020;-57
2022/05/18 04:12:49;;;;;;;25.92;11.05;;;;;;;6.68;100.00;99508.61;1751208;81;21112;-56
2022/05/18 04:15:16;;;;;;;27.85;11.12;;;;;;;6.69;100.00;99511.61;1744814;81;21114;-57
2022/05/18 04:17:47;;;;;;;22.60;10.38;;;;;;;6.69;100.00;99510.78;1763585;81;21372;-57
2022/05/18 04:20:18;;;;;;;24.40;10.55;;;;;;;6.70;100.00;99509.69;1754042;81;21020;-56
2022/05/18 04:22:45;;;;;;;24.37;10.60;;;;;;;6.80;100.00;99507.14;1746464;81;21048;-56
2022/05/18 04:25:15;;;;;;;20.30;9.33;;;;;;;6.85;100.00;99507.17;1742410;81;21100;-57
2022/05/18 04:27:42;;;;;;;18.50;8.88;;;;;;;6.92;100.00;99515.92;1761747;81;21080;-56
2022/05/18 04:30:10;;;;;;;20.43;8.70;;;;;;;7.01;100.00;99527.39;1748211;81;21561;-56
2022/05/18 04:32:38;;;;;;;22.00;8.50;;;;;;;7.10;100.00;99526.95;1752582;81;21406;-57
2022/05/18 04:35:07;;;;;;;18.15;8.95;;;;;;;7.26;100.00;99527.41;1746242;81;21600;-56
2022/05/18 04:37:33;;;;;;;19.65;8.68;;;;;;;7.43;100.00;99526.23;1755231;81;21047;-56
2022/05/18 04:48:37;;;;;;;14.30;5.67;;;;;;;7.51;100.00;99524.39;1764410;79;22978;-56
2022/05/18 04:51:05;;;;;;;14.13;6.00;;;;;;;7.28;100.00;99524.72;1735870;81;21098;-56
2022/05/18 04:53:34;;;;;;;11.95;4.53;;;;;;;7.20;100.00;99532.47;1722173;83;21619;-55
2022/05/18 04:56:01;;;;;;;14.87;5.70;;;;;;;7.11;100.00;99524.00;1718688;83;21567;-55
2022/05/18 04:58:28;;;;;;;11.80;5.20;;;;;;;7.03;100.00;99532.56;1725681;82;21067;-56
2022/05/18 05:01:02;;;;;;;11.35;5.72;;;;;;;6.92;100.00;99526.22;1716247;81;21522;-55
2022/05/18 05:03:28;;;;;;;14.07;5.53;;;;;;;6.90;100.00;99535.66;1726889;82;20979;-56
2022/05/18 05:05:54;;;;;;;9.68;4.70;;;;;;;6.92;100.00;99532.16;1720843;83;21063;-56
2022/05/18 05:08:21;;;;;;;12.35;4.35;;;;;;;6.97;100.00;99533.58;1725291;82;21534;-54
2022/05/18 05:10:50;;;;;;;11.40;4.58;;;;;;;6.91;100.00;99531.86;1688426;82;21719;-56
2022/05/18 05:13:16;;;;;;;6.20;3.30;;;;;;;6.86;100.00;99527.77;1725633;82;21039;-57
2022/05/18 05:15:44;;;;;;;8.33;2.58;;;;;;;6.84;100.00;99540.70;1720256;81;21637;-57
2022/05/18 05:18:11;;;;;;;5.12;2.27;;;;;;;6.90;100.00;99536.48;1721986;83;21074;-56
2022/05/18 05:20:38;;;;;;;;;;;;;;;6.84;100.00;99540.70;1726059;82;21082;-56
2022/05/18 05:23:05;;;;;;;5.80;1.90;;;;;;;6.85;100.00;99541.00;1724982;82;20120;-57
2022/05/18 05:25:32;;;;;;;6.00;1.90;;;;;;;6.82;100.00;99549.63;1727827;81;21091;-57
2022/05/18 05:27:58;;;;;;;;;;;;;;;6.82;100.00;99546.92;1724951;83;21526;-57
2022/05/18 05:30:27;;;;;;;3.87;1.82;;;;;;;6.78;100.00;99559.31;1708697;81;20117;-56
2022/05/18 05:32:54;;;;;;;3.60;1.30;;;;;;;6.67;100.00;99561.06;1726323;82;21133;-56
2022/05/18 05:35:21;;;;;;;4.08;1.40;;;;;;;6.62;100.00;99570.48;1727467;81;21041;-56
2022/05/18 05:37:48;;;;;;;3.50;1.35;;;;;;;6.65;100.00;99564.56;1726736;82;21065;-56
2022/05/18 05:40:16;;;;;;;3.22;0.98;;;;;;;6.61;100.00;99569.37;1727363;82;21571;-56
2022/05/18 05:42:43;;;;;;;2.67;1.00;;;;;;;6.64;100.00;99571.56;1706567;83;21051;-57
2022/05/18 05:45:11;;;;;;;2.65;1.12;;;;;;;6.66;100.00;99571.59;1694959;83;21042;-57
2022/05/18 05:47:37;;;;;;;4.55;1.35;;;;;;;6.67;100.00;99584.59;1698987;83;21559;-57
2022/05/18 05:50:05;;;;;;;3.50;1.07;;;;;;;6.61;100.00;99576.13;1728202;81;20971;-56
2022/05/18 05:52:32;;;;;;;4.42;1.12;;;;;;;6.64;100.00;99586.44;1680610;83;21026;-57
2022/05/18 05:54:59;;;;;;;3.22;1.50;;;;;;;6.69;100.00;99585.17;1672080;84;21035;-57
2022/05/18 05:57:26;;;;;;;;;;;;;;;6.66;100.00;99587.03;1665433;84;21706;-57
2022/05/18 05:59:52;;;;;;;2.98;1.30;;;;;;;6.65;100.00;99590.27;1671249;83;20119;-58
2022/05/18 06:02:19;;;;;;;4.75;1.50;;;;;;;6.72;100.00;99593.61;1671286;85;21566;-57
2022/05/18 06:04:47;;;;;;;;;;;;;;;6.79;100.00;99597.48;1674010;86;21047;-57
2022/05/18 06:07:13;;;;;;;3.77;1.35;;;;;;;6.75;100.00;99599.87;1670961;86;20424;-56
2022/05/18 06:09:41;;;;;;;2.85;1.20;;;;;;;6.62;100.00;99607.00;1671673;86;21530;-57
2022/05/18 06:12:09;;;;;;;2.85;1.37;;;;;;;6.62;100.00;99607.00;1662770;85;21672;-57
2022/05/18 06:14:36;;;;;;;4.42;1.70;;;;;;;6.71;100.00;99597.91;1690479;84;21047;-58
2022/05/18 06:17:04;;;;;;;4.87;2.12;;;;;;;6.71;100.00;99608.19;1700966;83;21150;-56
2022/05/18 06:19:33;;;;;;;6.87;2.02;;;;;;;6.70;100.00;99612.48;1692604;83;21502;-56
2022/05/18 06:21:59;;;;;;;5.92;2.30;;;;;;;6.70;100.00;99611.95;1697607;83;21140;-57
2022/05/18 06:24:25;;;;;;;5.42;2.67;;;;;;;6.70;100.00;99620.60;1690102;83;21011;-56
2022/05/18 06:26:54;;;;;;;4.83;2.17;;;;;;;6.65;100.00;99621.90;1665931;84;21585;-54
2022/05/18 06:29:21;;;;;;;4.70;2.60;;;;;;;6.66;100.00;99628.95;1620670;84;21163;-55
2022/05/18 06:31:47;;;;;;;8.35;3.02;;;;;;;6.76;100.00;99629.09;1664717;85;21138;-56
2022/05/18 06:34:14;;;;;;;8.80;2.70;;;;;;;6.83;100.00;99633.27;1671590;85;21030;-56
2022/05/18 06:36:40;;;;;;;;;;;;;;;6.84;100.00;99642.17;1676004;85;21145;-58
2022/05/18 06:39:07;;;;;;;6.60;2.90;;;;;;;6.77;100.00;99642.89;1658924;85;20513;-58
2022/05/18 06:41:34;;;;;;;7.05;3.20;;;;;;;6.76;100.00;99646.16;1669618;84;21027;-57
2022/05/18 06:44:04;;;;;;;7.40;3.30;;;;;;;6.83;100.00;99640.03;1670428;85;21083;-58
2022/05/18 06:46:33;;;;;;;6.90;3.60;;;;;;;6.86;100.00;99644.11;1668112;85;21074;-58
2022/05/18 06:49:01;;;;;;;7.70;3.65;;;;;;;6.92;100.00;99641.75;1650583;86;21091;-58
2022/05/18 06:51:31;;;;;;;7.17;3.50;;;;;;;7.06;100.00;99644.38;1646072;85;21087;-58
2022/05/18 06:53:58;;;;;;;7.65;3.65;;;;;;;7.15;100.00;99640.71;1648106;86;21036;-58
2022/05/18 06:56:32;;;;;;;9.25;3.92;;;;;;;7.12;100.00;99639.86;1654138;86;21132;-58
2022/05/18 06:58:59;;;;;;;7.12;3.05;;;;;;;7.20;100.00;99642.94;1652601;86;21095;-57
2022/05/18 07:01:27;;;;;;;8.20;3.52;;;;;;;7.26;100.00;99638.42;1713584;82;21079;-58
2022/05/18 07:03:53;;;;;;;8.68;3.55;;;;;;;7.39;100.00;99641.55;1714202;83;21068;-57
2022/05/18 07:06:24;;;;;;;7.87;3.08;;;;;;;7.50;100.00;99637.89;1713281;83;21130;-57
2022/05/18 07:08:51;;;;;;;6.85;3.52;;;;;;;7.53;100.00;99637.91;1716156;82;21090;-57
2022/05/18 07:11:19;;;;;;;6.85;3.30;;;;;;;7.53;100.00;99639.80;1711870;83;21074;-59
2022/05/18 07:13:51;;;;;;;9.03;4.03;;;;;;;7.57;100.00;99647.70;1707290;83;21070;-59
2022/05/18 07:16:22;;;;;;;8.08;3.90;;;;;;;7.67;100.00;99655.41;1710738;82;21114;-59
2022/05/18 07:18:48;;;;;;;8.83;3.67;;;;;;;7.75;100.00;99652.25;1716663;82;21063;-58
2022/05/18 07:21:16;;;;;;;9.83;4.78;;;;;;;7.81;100.00;99657.99;1712419;83;21074;-59
2022/05/18 07:23:43;;;;;;;7.97;4.03;;;;;;;7.76;100.00;99658.48;1713063;83;21036;-58
2022/05/18 07:26:11;;;;;;;9.53;3.85;;;;;;;7.75;100.00;99664.44;1713169;82;21566;-58
2022/05/18 07:28:39;;;;;;;9.05;3.60;;;;;;;7.74;100.00;99662.80;1713867;82;21074;-59
2022/05/18 07:31:07;;;;;;;8.85;3.92;;;;;;;7.81;100.00;99662.06;1702599;83;21016;-58
2022/05/18 07:33:34;;;;;;;9.40;4.05;;;;;;;7.82;100.00;99663.70;1709788;83;21083;-58
2022/05/18 07:36:00;;;;;;;;;;;;;;;7.83;100.00;99664.52;1712352;83;21675;-59
2022/05/18 07:38:29;;;;;;;8.83;3.45;;;;;;;7.89;100.00;99670.27;1715495;83;20420;-59
2022/05/18 07:40:56;;;;;;;8.25;3.00;;;;;;;7.92;100.00;99670.58;1703732;82;21091;-59
2022/05/18 07:43:23;;;;;;;7.15;3.20;;;;;;;8.02;100.00;99677.98;1715793;82;21475;-58
2022/05/18 07:45:50;;;;;;;8.80;3.08;;;;;;;8.07;100.00;99675.87;1711564;83;21027;-59
2022/05/18 07:48:17;;;;;;;7.83;3.05;;;;;;;8.09;100.00;99674.52;1713022;83;21035;-59
2022/05/18 07:50:43;;;;;;;7.03;3.10;;;;;;;8.30;100.00;99676.38;1662258;85;21112;-59
2022/05/18 07:53:10;;;;;;;6.05;2.77;;;;;;;8.46;100.00;99676.80;1708960;83;21031;-59
2022/05/18 07:57:42;;;;;;;7.97;2.70;;;;;;;8.64;100.00;99682.36;1807568;78;22780;-58
2022/05/18 08:00:10;;;;;;;5.90;2.37;;;;;;;8.50;100.00;99684.67;1784493;80;21027;-58
2022/05/18 08:02:39;;;;;;;5.78;2.20;;;;;;;8.43;100.00;99677.85;1744100;79;21540;-57
2022/05/18 08:05:07;;;;;;;7.22;2.33;;;;;;;8.42;100.00;99676.20;1747918;81;21041;-58
2022/05/18 08:07:34;;;;;;;5.87;2.25;;;;;;;8.34;100.00;99676.14;1749499;79;21018;-58
2022/05/18 08:15:35;;;;;;;4.33;1.90;;;;;;;8.27;100.00;99690.95;1735540;81;21086;-58
2022/05/18 08:18:02;;;;;;;4.83;1.70;;;;;;;8.17;100.00;99683.56;1754287;81;21003;-58
2022/05/18 08:20:30;;;;;;;;;;;;;;;8.15;100.00;99693.03;1748349;80;21098;-58
2022/05/18 08:22:56;;;;;;;2.52;1.20;;;;;;;8.06;100.00;99694.02;1747472;79;20156;-58
2022/05/18 08:25:23;;;;;;;3.55;1.20;;;;;;;7.96;100.00;99691.22;1746435;81;21112;-57
2022/05/18 08:27:49;;;;;;;;;;;;;;;7.88;100.00;99695.73;1757411;79;21048;-58
2022/05/18 08:30:19;;;;;;;4.42;1.40;;;;;;;7.83;100.00;99692.42;1743457;81;20184;-58
2022/05/18 08:32:48;;;;;;;1.75;0.70;;;;;;;7.76;100.00;99693.72;1752464;79;21054;-58
2022/05/18 08:35:15;;;;;;;2.83;0.62;;;;;;;7.79;100.00;99697.27;1729513;81;21041;-59
2022/05/18 08:37:44;;;;;;;;;;;;;;;7.75;100.00;99697.49;1741949;79;21026;-58
2022/05/18 08:40:31;;;;;;;1.75;0.80;;;;;;;7.77;100.00;99697.51;1748067;81;20130;-58
2022/05/18 08:43:00;;;;;;;3.02;1.17;;;;;;;7.70;100.00;99703.66;1732715;81;21498;-58
2022/05/18 08:45:30;;;;;;;1.37;0.90;;;;;;;7.71;100.00;99702.59;1717503;81;21069;-58
2022/05/18 08:48:24;;;;;;;2.55;0.90;;;;;;;7.75;100.00;99706.44;1748644;81;21038;-59
2022/05/18 08:50:52;;;;;;;2.42;1.20;;;;;;;7.79;100.00;99710.82;1743576;81;21117;-58
2022/05/18 08:53:51;;;;;;;2.20;0.90;;;;;;;7.80;100.00;99709.72;1746149;81;21541;-59
2022/05/18 08:56:24;;;;;;;1.50;0.80;;;;;;;7.79;100.00;99716.23;1730192;81;21070;-59
2022/05/18 08:58:52;;;;;;;2.02;1.12;;;;;;;7.81;100.00;99715.44;1731550;82;21011;-59
2022/05/18 09:01:42;;;;;;;2.72;1.00;;;;;;;7.88;100.00;99716.05;1720762;82;21569;-59
2022/05/18 09:04:23;;;;;;;2.20;0.85;;;;;;;7.93;100.00;99722.90;1725640;80;21017;-59
2022/05/18 09:07:03;;;;;;;2.58;1.20;;;;;;;7.82;100.00;99719.26;1740978;82;21079;-59
2022/05/18 09:10:12;;;;;;;3.70;1.07;;;;;;;7.75;100.00;99717.81;1722965;80;20979;-58
2022/05/18 09:12:43;;;;;;;3.80;1.12;;;;;;;7.76;100.00;99717.54;1719475;82;21047;-58
2022/05/18 09:15:14;;;;;;;3.25;1.22;;;;;;;7.81;100.00;99720.32;1706084;83;20999;-59
2022/05/18 09:17:58;;;;;;;5.17;1.15;;;;;;;7.81;100.00;99717.61;1729113;80;21003;-59
2022/05/18 09:20:39;;;;;;;5.42;1.07;;;;;;;7.79;100.00;99733.32;1748599;81;21549;-60
2022/05/18 09:23:33;;;;;;;2.67;1.30;;;;;;;7.78;100.00;99723.55;1731680;82;21054;-59
2022/05/18 09:26:11;;;;;;;2.33;1.05;;;;;;;7.80;100.00;99741.71;1745179;82;21154;-59
2022/05/18 09:28:49;;;;;;;3.87;1.30;;;;;;;7.75;100.00;99742.20;1720077;82;21002;-58
2022/05/18 09:31:43;;;;;;;2.90;1.22;;;;;;;7.73;100.00;99753.28;1719948;82;21086;-59
2022/05/18 09:34:36;;;;;;;3.22;1.60;;;;;;;7.78;100.00;99741.69;1733576;82;20928;-58
2022/05/18 09:37:29;;;;;;;1.75;1.00;;;;;;;7.76;100.00;99751.41;1747109;82;21597;-59
2022/05/18 09:40:25;;;;;;;3.22;1.32;;;;;;;7.79;100.00;99750.11;1746166;82;21558;-59
2022/05/18 09:43:10;;;;;;;3.35;1.30;;;;;;;7.77;100.00;99754.95;1732493;82;21529;-58
2022/05/18 09:45:41;;;;;;;3.33;1.50;;;;;;;7.82;100.00;99755.84;1726160;82;21071;-58
2022/05/18 09:48:13;;;;;;;5.78;1.60;;;;;;;7.86;100.00;99763.76;1732163;82;21648;-59
2022/05/18 09:50:42;;;;;;;3.05;1.52;;;;;;;7.92;100.00;99761.91;1742662;82;21527;-57
2022/05/18 09:53:09;;;;;;;3.42;1.72;;;;;;;7.99;100.00;99762.53;1729432;82;21045;-58
2022/05/18 09:55:35;;;;;;;3.27;1.40;;;;;;;8.01;100.00;99771.22;1741780;80;21094;-59
2022/05/18 09:58:17;;;;;;;2.87;1.50;;;;;;;8.03;100.00;99775.87;1749279;81;21502;-58
2022/05/18 10:00:44;;;;;;;2.02;1.22;;;;;;;8.03;100.00;99781.82;1737090;82;21043;-58
2022/05/18 10:08:53;;;;;;;2.87;1.47;;;;;;;7.92;100.00;99786.30;1740837;82;20999;-58
2022/05/18 10:11:32;;;;;;;2.30;1.52;;;;;;;7.94;100.00;99796.34;1703190;83;21601;-59
2022/05/18 10:14:10;;;;;;;4.62;1.85;;;;;;;8.00;100.00;99799.42;1698986;82;21007;-58
2022/05/18 10:16:47;;;;;;;3.60;1.75;;;;;;;8.04;100.00;99801.91;1719456;83;21126;-58
2022/05/18 10:19:28;;;;;;;3.72;1.82;;;;;;;8.13;100.00;99809.05;1725643;82;20979;-58
2022/05/18 10:21:58;;;;;;;3.30;1.62;;;;;;;8.09;100.00;99799.24;1731890;82;21141;-58
2022/05/18 10:24:45;;;;;;;3.58;1.90;;;;;;;8.12;100.00;99804.69;1723810;82;21007;-59
2022/05/18 10:27:26;;;;;;;3.27;1.83;;;;;;;8.21;100.00;99804.00;1731140;82;21051;-59
2022/05/18 10:30:08;;;;;;;3.58;2.02;;;;;;;8.29;100.00;99816.33;1719724;82;21445;-58
2022/05/18 10:32:38;;;;;;;2.20;1.57;;;;;;;8.38;100.00;99803.94;1720010;82;21070;-59
2022/05/18 10:35:07;;;;;;;3.42;2.12;;;;;;;8.41;100.00;99811.02;1728370;82;21517;-58
2022/05/18 10:37:38;;;;;;;3.83;1.80;;;;;;;8.48;100.00;99812.17;1708230;82;21003;-58
2022/05/18 10:40:11;;;;;;;3.80;2.27;;;;;;;8.59;100.00;99814.44;1720122;82;21038;-59
2022/05/18 10:42:48;;;;;;;4.85;1.95;;;;;;;8.62;100.00;99812.56;1736738;82;21643;-59
2022/05/18 10:45:34;;;;;;;5.70;2.22;;;;;;;8.81;100.00;99812.48;1719858;83;20980;-59
2022/05/18 10:48:04;;;;;;;4.87;2.08;;;;;;;9.01;100.00;99815.36;1735945;82;21022;-60
2022/05/18 10:50:36;;;;;;;5.47;2.47;;;;;;;9.22;100.00;99816.33;1744926;82;21035;-60
2022/05/18 10:53:16;;;;;;;3.95;2.02;;;;;;;9.32;100.00;99813.67;1729492;82;21315;-62
2022/05/18 10:56:09;;;;;;;4.10;2.37;;;;;;;9.42;100.00;99813.20;1719085;82;21795;-60
2022/05/18 10:58:48;;;;;;;4.55;2.58;;;;;;;9.55;100.00;99814.66;1733580;82;20948;-61
2022/05/18 11:01:24;;;;;;;5.72;2.72;;;;;;;9.56;100.00;99814.12;1727488;82;21065;-60
2022/05/18 11:04:01;;;;;;;6.65;3.10;;;;;;;9.60;100.00;99809.80;1728892;80;20971;-60
2022/05/18 11:06:34;;;;;;;6.67;3.67;;;;;;;9.58;100.00;99810.05;1728989;82;21024;-60
2022/05/18 11:09:07;;;;;;;6.00;3.15;;;;;;;9.49;100.00;99813.79;1730512;80;20987;-60
2022/05/18 11:11:57;;;;;;;4.15;2.75;;;;;;;9.44;100.00;99804.27;1737096;82;21023;-59
2022/05/18 11:14:49;;;;;;;5.90;3.08;;;;;;;9.42;100.00;99820.56;1740405;82;21455;-59
2022/05/18 11:17:48;;;;;;;6.28;3.17;;;;;;;9.38;100.00;99818.09;1724308;82;21625;-59
2022/05/18 11:20:30;;;;;;;5.55;2.70;;;;;;;9.23;100.00;99823.41;1736308;82;21038;-60
2022/05/18 11:23:23;;;;;;;4.87;2.33;;;;;;;9.21;100.00;99820.94;1738515;82;21587;-60
2022/05/18 11:26:16;;;;;;;5.00;2.62;;;;;;;9.30;100.00;99821.28;1725711;82;21086;-60
2022/05/18 11:29:24;;;;;;;4.80;2.40;;;;;;;9.30;100.00;99824.83;1738898;80;21081;-58
2022/05/18 11:32:15;;;;;;;5.67;2.40;;;;;;;9.37;100.00;99830.02;1727441;82;21074;-59
2022/05/18 11:35:26;;;;;;;3.72;2.35;;;;;;;9.50;100.00;99822.77;1740476;82;21029;-58
2022/05/18 11:38:17;;;;;;;4.87;2.30;;;;;;;9.41;100.00;99838.77;1734602;80;21063;-60
2022/05/18 11:41:10;;;;;;;2.67;1.70;;;;;;;9.43;100.00;99832.52;1726193;82;21122;-58
2022/05/18 11:44:01;;;;;;;4.60;2.10;;;;;;;9.45;100.00;99840.41;1717600;81;21055;-58
2022/05/18 11:46:55;;;;;;;3.15;2.10;;;;;;;9.41;100.00;99842.84;1736735;82;21059;-59
2022/05/18 11:49:39;;;;;;;3.37;2.15;;;;;;;9.35;100.00;99840.34;1734336;82;21566;-59
2022/05/18 11:52:24;;;;;;;6.05;2.35;;;;;;;9.34;100.00;99846.31;1736610;82;21086;-58
2022/05/18 11:55:14;;;;;;;3.85;2.37;;;;;;;9.34;100.00;99847.67;1725337;82;21027;-60
2022/05/18 11:57:53;;;;;;;4.97;1.98;;;;;;;9.28;100.00;99850.05;1735080;81;21054;-59
2022/05/18 12:00:56;;;;;;;4.17;2.10;;;;;;;9.37;100.00;99855.84;1731525;82;21629;-59
2022/05/18 12:03:51;;;;;;;5.80;2.15;;;;;;;9.40;100.00;99847.16;1751554;82;21705;-59
2022/05/18 12:07:01;;;;;;;4.87;2.37;;;;;;;9.47;100.00;99854.55;1738707;82;21094;-59
2022/05/18 12:09:38;;;;;;;4.25;2.80;;;;;;;9.60;100.00;99854.64;1733380;82;21047;-60
2022/05/18 12:12:32;;;;;;;4.62;2.40;;;;;;;9.70;100.00;99856.88;1743701;82;21090;-59
2022/05/18 12:15:28;;;;;;;8.25;2.10;;;;;;;9.69;100.00;99865.29;1729252;82;21447;-60
2022/05/18 12:18:05;;;;;;;5.80;2.27;;;;;;;9.75;100.00;99864.23;1713086;82;21062;-58
2022/05/18 12:20:49;;;;;;;5.30;2.40;;;;;;;9.63;100.00;99864.98;1736120;82;21038;-59
2022/05/18 12:23:18;;;;;;;4.22;2.33;;;;;;;9.62;100.00;99868.78;1747259;82;21021;-59